Boston, Massachusetts
Traffic Map
Current Weather Conditions
Boston, Massachusetts
Few Clouds
Few Clouds
77°
Feels Like: 79°
Wind Chill: 77° Ceiling: Unl
Heat Index: 79° Visibility: 10mi
Dew Point: 70° Wind: 8mph
Humidity: 79% Direction: 190° (S)
Pressure: 29.76in Gusts: 0mph
Raw Report DataKBOS 030154Z 19007KT 10SM FEW250 25/21 A2976 RMK AO2 SLP079 T02500211
Traffic Incident Summary
Active as of:
Severity:
Category:
InformationThere was an issue retrieving the traffic information for this location. Please try a different location or try again shortly.
Advertisements
Track Severe Weather on mobile